sensor_id;sensor_type;location;lat;lon;timestamp;P1;durP1;ratioP1;P2;durP2;ratioP2
44276;SDS011;29973;43.742;1.236;2022-12-07T00:01:17;35.75;;;20.55;;
44276;SDS011;29973;43.742;1.236;2022-12-07T00:03:49;31.00;;;18.48;;
44276;SDS011;29973;43.742;1.236;2022-12-07T00:06:17;34.95;;;20.33;;
44276;SDS011;29973;43.742;1.236;2022-12-07T00:08:43;31.15;;;20.60;;
44276;SDS011;29973;43.742;1.236;2022-12-07T00:13:37;37.00;;;21.52;;
44276;SDS011;29973;43.742;1.236;2022-12-07T00:16:08;36.92;;;19.98;;
44276;SDS011;29973;43.742;1.236;2022-12-07T00:18:35;26.48;;;17.70;;
44276;SDS011;29973;43.742;1.236;2022-12-07T00:21:23;41.65;;;22.80;;
44276;SDS011;29973;43.742;1.236;2022-12-07T00:23:51;30.38;;;18.42;;
44276;SDS011;29973;43.742;1.236;2022-12-07T00:26:27;31.73;;;17.48;;
44276;SDS011;29973;43.742;1.236;2022-12-07T00:28:55;30.77;;;17.65;;
44276;SDS011;29973;43.742;1.236;2022-12-07T00:31:23;27.77;;;16.50;;
44276;SDS011;29973;43.742;1.236;2022-12-07T00:33:51;28.98;;;16.45;;
44276;SDS011;29973;43.742;1.236;2022-12-07T00:36:18;27.33;;;16.23;;
44276;SDS011;29973;43.742;1.236;2022-12-07T00:38:45;25.48;;;15.38;;
44276;SDS011;29973;43.742;1.236;2022-12-07T00:41:12;26.50;;;15.23;;
44276;SDS011;29973;43.742;1.236;2022-12-07T00:43:40;26.73;;;14.73;;
44276;SDS011;29973;43.742;1.236;2022-12-07T00:46:07;25.88;;;15.23;;
44276;SDS011;29973;43.742;1.236;2022-12-07T00:48:33;30.20;;;16.75;;
44276;SDS011;29973;43.742;1.236;2022-12-07T00:50:59;23.60;;;14.90;;
44276;SDS011;29973;43.742;1.236;2022-12-07T00:53:25;29.25;;;15.60;;
44276;SDS011;29973;43.742;1.236;2022-12-07T00:55:51;27.40;;;15.90;;
44276;SDS011;29973;43.742;1.236;2022-12-07T00:58:17;27.35;;;15.55;;
44276;SDS011;29973;43.742;1.236;2022-12-07T01:00:44;23.77;;;14.60;;
44276;SDS011;29973;43.742;1.236;2022-12-07T01:03:10;25.70;;;14.05;;
44276;SDS011;29973;43.742;1.236;2022-12-07T01:05:37;23.63;;;14.38;;
44276;SDS011;29973;43.742;1.236;2022-12-07T01:08:04;21.13;;;13.13;;
44276;SDS011;29973;43.742;1.236;2022-12-07T01:10:30;24.45;;;14.15;;
44276;SDS011;29973;43.742;1.236;2022-12-07T01:12:56;22.75;;;14.23;;
44276;SDS011;29973;43.742;1.236;2022-12-07T01:15:23;22.80;;;13.93;;
44276;SDS011;29973;43.742;1.236;2022-12-07T01:17:50;24.05;;;13.60;;
44276;SDS011;29973;43.742;1.236;2022-12-07T01:20:15;21.52;;;13.57;;
44276;SDS011;29973;43.742;1.236;2022-12-07T01:22:42;23.30;;;13.65;;
44276;SDS011;29973;43.742;1.236;2022-12-07T01:25:08;22.40;;;13.65;;
44276;SDS011;29973;43.742;1.236;2022-12-07T01:27:35;23.45;;;13.60;;
44276;SDS011;29973;43.742;1.236;2022-12-07T01:30:02;24.27;;;13.52;;
44276;SDS011;29973;43.742;1.236;2022-12-07T01:32:30;23.17;;;13.82;;
44276;SDS011;29973;43.742;1.236;2022-12-07T01:34:56;28.60;;;13.63;;
44276;SDS011;29973;43.742;1.236;2022-12-07T01:37:22;21.83;;;12.82;;
44276;SDS011;29973;43.742;1.236;2022-12-07T01:39:48;21.65;;;13.68;;
44276;SDS011;29973;43.742;1.236;2022-12-07T01:42:15;22.65;;;13.45;;
44276;SDS011;29973;43.742;1.236;2022-12-07T01:47:46;27.23;;;13.98;;
44276;SDS011;29973;43.742;1.236;2022-12-07T01:50:17;33.75;;;18.63;;
44276;SDS011;29973;43.742;1.236;2022-12-07T01:52:44;32.55;;;19.42;;
44276;SDS011;29973;43.742;1.236;2022-12-07T01:55:13;33.67;;;17.98;;
44276;SDS011;29973;43.742;1.236;2022-12-07T01:57:41;37.78;;;17.80;;
44276;SDS011;29973;43.742;1.236;2022-12-07T02:00:17;33.53;;;16.48;;
44276;SDS011;29973;43.742;1.236;2022-12-07T02:02:48;30.42;;;16.23;;
44276;SDS011;29973;43.742;1.236;2022-12-07T02:05:19;27.35;;;17.13;;
44276;SDS011;29973;43.742;1.236;2022-12-07T02:07:45;27.98;;;17.67;;
44276;SDS011;29973;43.742;1.236;2022-12-07T02:10:16;38.85;;;18.85;;
44276;SDS011;29973;43.742;1.236;2022-12-07T02:12:46;35.13;;;18.88;;
44276;SDS011;29973;43.742;1.236;2022-12-07T02:15:15;29.95;;;16.98;;
44276;SDS011;29973;43.742;1.236;2022-12-07T02:17:44;30.02;;;16.73;;
44276;SDS011;29973;43.742;1.236;2022-12-07T02:20:26;26.00;;;15.07;;
44276;SDS011;29973;43.742;1.236;2022-12-07T02:28:20;34.08;;;16.80;;
44276;SDS011;29973;43.742;1.236;2022-12-07T02:30:58;31.15;;;17.40;;
44276;SDS011;29973;43.742;1.236;2022-12-07T02:33:37;31.63;;;17.17;;
44276;SDS011;29973;43.742;1.236;2022-12-07T02:39:06;24.15;;;15.27;;
44276;SDS011;29973;43.742;1.236;2022-12-07T02:41:36;29.60;;;16.58;;
44276;SDS011;29973;43.742;1.236;2022-12-07T02:44:13;32.92;;;19.88;;
44276;SDS011;29973;43.742;1.236;2022-12-07T02:46:51;30.42;;;17.73;;
44276;SDS011;29973;43.742;1.236;2022-12-07T02:49:24;31.52;;;18.67;;
44276;SDS011;29973;43.742;1.236;2022-12-07T02:51:52;43.22;;;23.23;;
44276;SDS011;29973;43.742;1.236;2022-12-07T02:54:19;43.55;;;24.13;;
44276;SDS011;29973;43.742;1.236;2022-12-07T02:56:48;37.30;;;22.77;;
44276;SDS011;29973;43.742;1.236;2022-12-07T02:59:33;41.13;;;23.00;;
44276;SDS011;29973;43.742;1.236;2022-12-07T03:11:16;39.45;;;22.63;;
44276;SDS011;29973;43.742;1.236;2022-12-07T03:16:20;40.42;;;19.90;;
44276;SDS011;29973;43.742;1.236;2022-12-07T03:18:57;34.50;;;19.30;;
44276;SDS011;29973;43.742;1.236;2022-12-07T03:21:38;32.10;;;18.27;;
44276;SDS011;29973;43.742;1.236;2022-12-07T03:24:10;33.15;;;18.10;;
44276;SDS011;29973;43.742;1.236;2022-12-07T03:26:44;30.42;;;17.80;;
44276;SDS011;29973;43.742;1.236;2022-12-07T03:29:19;30.27;;;17.88;;
44276;SDS011;29973;43.742;1.236;2022-12-07T03:31:56;27.33;;;17.05;;
44276;SDS011;29973;43.742;1.236;2022-12-07T03:34:30;28.98;;;17.63;;
44276;SDS011;29973;43.742;1.236;2022-12-07T03:37:26;28.27;;;16.55;;
44276;SDS011;29973;43.742;1.236;2022-12-07T03:40:13;38.63;;;19.52;;
44276;SDS011;29973;43.742;1.236;2022-12-07T03:42:47;26.90;;;15.15;;
44276;SDS011;29973;43.742;1.236;2022-12-07T03:45:15;25.60;;;15.50;;
44276;SDS011;29973;43.742;1.236;2022-12-07T03:48:02;32.60;;;16.17;;
44276;SDS011;29973;43.742;1.236;2022-12-07T03:51:08;24.63;;;16.17;;
44276;SDS011;29973;43.742;1.236;2022-12-07T03:56:36;28.52;;;14.73;;
44276;SDS011;29973;43.742;1.236;2022-12-07T03:59:02;23.92;;;14.48;;
44276;SDS011;29973;43.742;1.236;2022-12-07T04:01:28;24.85;;;15.80;;
44276;SDS011;29973;43.742;1.236;2022-12-07T04:03:54;28.85;;;16.58;;
44276;SDS011;29973;43.742;1.236;2022-12-07T04:06:20;26.70;;;16.05;;
44276;SDS011;29973;43.742;1.236;2022-12-07T04:08:45;32.83;;;20.02;;
44276;SDS011;29973;43.742;1.236;2022-12-07T04:11:11;28.55;;;16.00;;
44276;SDS011;29973;43.742;1.236;2022-12-07T04:13:37;28.30;;;15.50;;
44276;SDS011;29973;43.742;1.236;2022-12-07T04:16:22;22.23;;;13.30;;
44276;SDS011;29973;43.742;1.236;2022-12-07T04:18:48;34.03;;;15.02;;
44276;SDS011;29973;43.742;1.236;2022-12-07T04:21:14;29.45;;;15.45;;
44276;SDS011;29973;43.742;1.236;2022-12-07T04:23:39;22.55;;;13.98;;
44276;SDS011;29973;43.742;1.236;2022-12-07T04:26:05;21.08;;;13.63;;
44276;SDS011;29973;43.742;1.236;2022-12-07T04:28:31;21.48;;;12.77;;
44276;SDS011;29973;43.742;1.236;2022-12-07T04:30:56;25.65;;;13.80;;
44276;SDS011;29973;43.742;1.236;2022-12-07T04:33:22;22.05;;;13.52;;
44276;SDS011;29973;43.742;1.236;2022-12-07T04:35:48;23.92;;;13.55;;
44276;SDS011;29973;43.742;1.236;2022-12-07T04:38:15;20.88;;;13.63;;
44276;SDS011;29973;43.742;1.236;2022-12-07T04:40:42;25.00;;;14.07;;
44276;SDS011;29973;43.742;1.236;2022-12-07T04:43:08;21.35;;;13.80;;
44276;SDS011;29973;43.742;1.236;2022-12-07T04:45:33;22.52;;;13.57;;
44276;SDS011;29973;43.742;1.236;2022-12-07T04:47:59;22.60;;;12.93;;
44276;SDS011;29973;43.742;1.236;2022-12-07T04:50:24;21.30;;;12.75;;
44276;SDS011;29973;43.742;1.236;2022-12-07T04:52:50;19.23;;;12.95;;
44276;SDS011;29973;43.742;1.236;2022-12-07T04:55:16;22.48;;;12.80;;
44276;SDS011;29973;43.742;1.236;2022-12-07T04:57:42;22.60;;;13.80;;
44276;SDS011;29973;43.742;1.236;2022-12-07T05:00:07;21.90;;;13.52;;
44276;SDS011;29973;43.742;1.236;2022-12-07T05:02:33;19.75;;;12.05;;
44276;SDS011;29973;43.742;1.236;2022-12-07T05:04:59;26.70;;;12.65;;
44276;SDS011;29973;43.742;1.236;2022-12-07T05:07:25;25.73;;;12.80;;
44276;SDS011;29973;43.742;1.236;2022-12-07T05:09:50;19.50;;;12.70;;
44276;SDS011;29973;43.742;1.236;2022-12-07T05:12:16;19.65;;;12.75;;
44276;SDS011;29973;43.742;1.236;2022-12-07T05:14:42;21.73;;;12.93;;
44276;SDS011;29973;43.742;1.236;2022-12-07T05:17:08;19.40;;;11.65;;
44276;SDS011;29973;43.742;1.236;2022-12-07T05:19:33;16.70;;;10.80;;
44276;SDS011;29973;43.742;1.236;2022-12-07T05:21:59;20.75;;;11.23;;
44276;SDS011;29973;43.742;1.236;2022-12-07T05:24:25;20.15;;;11.38;;
44276;SDS011;29973;43.742;1.236;2022-12-07T05:26:50;17.05;;;10.82;;
44276;SDS011;29973;43.742;1.236;2022-12-07T05:29:16;16.77;;;10.70;;
44276;SDS011;29973;43.742;1.236;2022-12-07T05:31:42;24.80;;;12.63;;
44276;SDS011;29973;43.742;1.236;2022-12-07T05:34:09;16.95;;;11.95;;
44276;SDS011;29973;43.742;1.236;2022-12-07T05:36:35;23.67;;;11.57;;
44276;SDS011;29973;43.742;1.236;2022-12-07T05:39:00;17.20;;;9.70;;
44276;SDS011;29973;43.742;1.236;2022-12-07T05:41:26;21.67;;;11.63;;
44276;SDS011;29973;43.742;1.236;2022-12-07T05:44:10;19.45;;;11.38;;
44276;SDS011;29973;43.742;1.236;2022-12-07T05:46:36;22.45;;;11.77;;
44276;SDS011;29973;43.742;1.236;2022-12-07T05:49:01;18.10;;;11.25;;
44276;SDS011;29973;43.742;1.236;2022-12-07T05:51:27;18.83;;;11.95;;
44276;SDS011;29973;43.742;1.236;2022-12-07T05:53:53;20.27;;;12.00;;
44276;SDS011;29973;43.742;1.236;2022-12-07T05:56:19;22.20;;;11.23;;
44276;SDS011;29973;43.742;1.236;2022-12-07T05:58:45;21.80;;;12.07;;
44276;SDS011;29973;43.742;1.236;2022-12-07T06:01:29;21.85;;;11.27;;
44276;SDS011;29973;43.742;1.236;2022-12-07T06:03:55;18.42;;;10.32;;
44276;SDS011;29973;43.742;1.236;2022-12-07T06:06:20;20.75;;;12.18;;
44276;SDS011;29973;43.742;1.236;2022-12-07T06:08:46;22.92;;;11.88;;
44276;SDS011;29973;43.742;1.236;2022-12-07T06:11:12;18.00;;;11.25;;
44276;SDS011;29973;43.742;1.236;2022-12-07T06:13:56;20.02;;;12.43;;
44276;SDS011;29973;43.742;1.236;2022-12-07T06:16:21;22.67;;;12.77;;
44276;SDS011;29973;43.742;1.236;2022-12-07T06:18:47;24.10;;;11.80;;
44276;SDS011;29973;43.742;1.236;2022-12-07T06:21:13;21.60;;;12.38;;
44276;SDS011;29973;43.742;1.236;2022-12-07T06:23:39;30.67;;;13.30;;
44276;SDS011;29973;43.742;1.236;2022-12-07T06:26:05;25.52;;;14.18;;
44276;SDS011;29973;43.742;1.236;2022-12-07T06:28:30;26.60;;;14.63;;
44276;SDS011;29973;43.742;1.236;2022-12-07T06:30:57;25.50;;;14.68;;
44276;SDS011;29973;43.742;1.236;2022-12-07T06:33:24;28.90;;;15.63;;
44276;SDS011;29973;43.742;1.236;2022-12-07T06:35:49;23.33;;;14.20;;
44276;SDS011;29973;43.742;1.236;2022-12-07T06:38:16;21.60;;;14.43;;
44276;SDS011;29973;43.742;1.236;2022-12-07T06:40:41;24.05;;;14.32;;
44276;SDS011;29973;43.742;1.236;2022-12-07T06:43:07;22.73;;;14.43;;
44276;SDS011;29973;43.742;1.236;2022-12-07T06:45:33;28.45;;;16.30;;
44276;SDS011;29973;43.742;1.236;2022-12-07T06:47:59;29.77;;;15.73;;
44276;SDS011;29973;43.742;1.236;2022-12-07T06:50:24;27.50;;;16.73;;
44276;SDS011;29973;43.742;1.236;2022-12-07T06:52:51;30.70;;;16.40;;
44276;SDS011;29973;43.742;1.236;2022-12-07T06:55:17;30.00;;;17.02;;
44276;SDS011;29973;43.742;1.236;2022-12-07T06:57:43;31.45;;;16.67;;
44276;SDS011;29973;43.742;1.236;2022-12-07T07:00:09;27.48;;;16.80;;
44276;SDS011;29973;43.742;1.236;2022-12-07T07:02:35;29.17;;;16.05;;
44276;SDS011;29973;43.742;1.236;2022-12-07T07:05:01;25.50;;;15.15;;
44276;SDS011;29973;43.742;1.236;2022-12-07T07:07:27;26.77;;;15.90;;
44276;SDS011;29973;43.742;1.236;2022-12-07T07:09:53;26.98;;;15.73;;
44276;SDS011;29973;43.742;1.236;2022-12-07T07:12:19;29.45;;;15.98;;
44276;SDS011;29973;43.742;1.236;2022-12-07T07:14:44;29.63;;;17.55;;
44276;SDS011;29973;43.742;1.236;2022-12-07T07:17:10;28.67;;;16.75;;
44276;SDS011;29973;43.742;1.236;2022-12-07T07:19:36;26.52;;;17.17;;
44276;SDS011;29973;43.742;1.236;2022-12-07T07:22:02;39.83;;;17.42;;
44276;SDS011;29973;43.742;1.236;2022-12-07T07:24:28;28.40;;;17.00;;
44276;SDS011;29973;43.742;1.236;2022-12-07T07:26:54;23.98;;;15.95;;
44276;SDS011;29973;43.742;1.236;2022-12-07T07:29:20;26.63;;;15.77;;
44276;SDS011;29973;43.742;1.236;2022-12-07T07:31:46;26.10;;;15.20;;
44276;SDS011;29973;43.742;1.236;2022-12-07T07:34:11;26.20;;;15.80;;
44276;SDS011;29973;43.742;1.236;2022-12-07T07:36:37;31.52;;;15.77;;
44276;SDS011;29973;43.742;1.236;2022-12-07T07:39:03;25.17;;;14.77;;
44276;SDS011;29973;43.742;1.236;2022-12-07T07:41:30;28.75;;;14.93;;
44276;SDS011;29973;43.742;1.236;2022-12-07T07:43:56;24.55;;;14.57;;
44276;SDS011;29973;43.742;1.236;2022-12-07T07:46:22;23.73;;;13.23;;
44276;SDS011;29973;43.742;1.236;2022-12-07T07:48:48;29.08;;;15.20;;
44276;SDS011;29973;43.742;1.236;2022-12-07T07:51:14;27.33;;;15.60;;
44276;SDS011;29973;43.742;1.236;2022-12-07T07:53:39;22.40;;;14.70;;
44276;SDS011;29973;43.742;1.236;2022-12-07T07:56:05;23.45;;;15.20;;
44276;SDS011;29973;43.742;1.236;2022-12-07T07:58:31;30.50;;;18.80;;
44276;SDS011;29973;43.742;1.236;2022-12-07T08:00:56;27.48;;;16.48;;
44276;SDS011;29973;43.742;1.236;2022-12-07T08:03:28;26.80;;;15.63;;
44276;SDS011;29973;43.742;1.236;2022-12-07T08:05:53;21.77;;;14.27;;
44276;SDS011;29973;43.742;1.236;2022-12-07T08:08:19;22.45;;;14.00;;
44276;SDS011;29973;43.742;1.236;2022-12-07T08:10:45;23.38;;;14.23;;
44276;SDS011;29973;43.742;1.236;2022-12-07T08:13:11;23.92;;;14.35;;
44276;SDS011;29973;43.742;1.236;2022-12-07T08:15:38;19.50;;;13.85;;
44276;SDS011;29973;43.742;1.236;2022-12-07T08:18:06;23.52;;;12.57;;
44276;SDS011;29973;43.742;1.236;2022-12-07T08:20:32;18.00;;;11.98;;
44276;SDS011;29973;43.742;1.236;2022-12-07T08:22:59;22.50;;;13.23;;
44276;SDS011;29973;43.742;1.236;2022-12-07T08:25:25;21.77;;;13.82;;
44276;SDS011;29973;43.742;1.236;2022-12-07T08:27:51;19.95;;;13.75;;
44276;SDS011;29973;43.742;1.236;2022-12-07T08:30:18;21.77;;;14.93;;
44276;SDS011;29973;43.742;1.236;2022-12-07T08:32:44;24.98;;;15.60;;
44276;SDS011;29973;43.742;1.236;2022-12-07T08:35:10;22.23;;;14.57;;
44276;SDS011;29973;43.742;1.236;2022-12-07T08:37:36;25.15;;;15.25;;
44276;SDS011;29973;43.742;1.236;2022-12-07T08:40:03;23.42;;;14.85;;
44276;SDS011;29973;43.742;1.236;2022-12-07T08:42:29;24.27;;;15.40;;
44276;SDS011;29973;43.742;1.236;2022-12-07T08:45:03;26.20;;;15.43;;
44276;SDS011;29973;43.742;1.236;2022-12-07T08:47:30;23.10;;;13.32;;
44276;SDS011;29973;43.742;1.236;2022-12-07T08:49:56;22.63;;;14.80;;
44276;SDS011;29973;43.742;1.236;2022-12-07T08:52:28;25.95;;;15.27;;
44276;SDS011;29973;43.742;1.236;2022-12-07T08:54:55;24.10;;;14.85;;
44276;SDS011;29973;43.742;1.236;2022-12-07T08:57:21;25.60;;;16.02;;
44276;SDS011;29973;43.742;1.236;2022-12-07T08:59:47;23.98;;;14.68;;
44276;SDS011;29973;43.742;1.236;2022-12-07T09:02:13;24.52;;;13.27;;
44276;SDS011;29973;43.742;1.236;2022-12-07T09:04:38;22.45;;;13.75;;
44276;SDS011;29973;43.742;1.236;2022-12-07T09:07:05;20.65;;;12.85;;
44276;SDS011;29973;43.742;1.236;2022-12-07T09:09:31;18.38;;;12.20;;
44276;SDS011;29973;43.742;1.236;2022-12-07T09:11:57;19.00;;;11.73;;
44276;SDS011;29973;43.742;1.236;2022-12-07T09:14:23;22.33;;;12.98;;
44276;SDS011;29973;43.742;1.236;2022-12-07T09:16:48;19.77;;;12.02;;
44276;SDS011;29973;43.742;1.236;2022-12-07T09:19:15;17.25;;;11.05;;
44276;SDS011;29973;43.742;1.236;2022-12-07T09:21:40;19.73;;;12.15;;
44276;SDS011;29973;43.742;1.236;2022-12-07T09:24:06;20.52;;;12.07;;
44276;SDS011;29973;43.742;1.236;2022-12-07T09:26:32;19.92;;;11.98;;
44276;SDS011;29973;43.742;1.236;2022-12-07T09:29:00;21.65;;;12.90;;
44276;SDS011;29973;43.742;1.236;2022-12-07T09:31:27;18.15;;;11.93;;
44276;SDS011;29973;43.742;1.236;2022-12-07T09:33:56;16.30;;;11.73;;
44276;SDS011;29973;43.742;1.236;2022-12-07T09:36:24;19.45;;;12.38;;
44276;SDS011;29973;43.742;1.236;2022-12-07T09:38:50;19.02;;;12.90;;
44276;SDS011;29973;43.742;1.236;2022-12-07T09:41:16;19.75;;;12.93;;
44276;SDS011;29973;43.742;1.236;2022-12-07T09:43:42;17.98;;;12.23;;
44276;SDS011;29973;43.742;1.236;2022-12-07T09:46:09;20.20;;;13.43;;
44276;SDS011;29973;43.742;1.236;2022-12-07T09:48:38;19.08;;;12.70;;
44276;SDS011;29973;43.742;1.236;2022-12-07T09:51:14;21.05;;;12.95;;
44276;SDS011;29973;43.742;1.236;2022-12-07T09:53:43;18.73;;;12.63;;
44276;SDS011;29973;43.742;1.236;2022-12-07T09:56:13;20.83;;;12.85;;
44276;SDS011;29973;43.742;1.236;2022-12-07T09:58:40;17.20;;;12.63;;
44276;SDS011;29973;43.742;1.236;2022-12-07T10:03:33;18.00;;;11.25;;
44276;SDS011;29973;43.742;1.236;2022-12-07T10:06:01;17.63;;;11.05;;
44276;SDS011;29973;43.742;1.236;2022-12-07T10:08:27;14.25;;;10.50;;
44276;SDS011;29973;43.742;1.236;2022-12-07T10:10:54;13.63;;;10.57;;
44276;SDS011;29973;43.742;1.236;2022-12-07T10:16:00;16.27;;;10.88;;
44276;SDS011;29973;43.742;1.236;2022-12-07T10:18:40;17.42;;;11.20;;
44276;SDS011;29973;43.742;1.236;2022-12-07T10:24:03;14.15;;;10.73;;
44276;SDS011;29973;43.742;1.236;2022-12-07T10:26:37;15.70;;;10.98;;
44276;SDS011;29973;43.742;1.236;2022-12-07T10:29:21;13.85;;;9.57;;
44276;SDS011;29973;43.742;1.236;2022-12-07T10:32:04;14.98;;;10.57;;
44276;SDS011;29973;43.742;1.236;2022-12-07T10:34:49;13.68;;;10.43;;
44276;SDS011;29973;43.742;1.236;2022-12-07T10:37:17;14.07;;;9.95;;
44276;SDS011;29973;43.742;1.236;2022-12-07T10:42:19;15.25;;;10.80;;
44276;SDS011;29973;43.742;1.236;2022-12-07T10:44:47;19.30;;;12.63;;
44276;SDS011;29973;43.742;1.236;2022-12-07T10:52:42;17.00;;;9.57;;
44276;SDS011;29973;43.742;1.236;2022-12-07T10:55:16;15.27;;;10.70;;
44276;SDS011;29973;43.742;1.236;2022-12-07T11:00:55;15.95;;;11.10;;
44276;SDS011;29973;43.742;1.236;2022-12-07T11:12:09;17.08;;;11.25;;
44276;SDS011;29973;43.742;1.236;2022-12-07T11:15:04;13.30;;;8.95;;
44276;SDS011;29973;43.742;1.236;2022-12-07T11:20:29;10.32;;;6.93;;
44276;SDS011;29973;43.742;1.236;2022-12-07T11:23:13;10.00;;;7.22;;
44276;SDS011;29973;43.742;1.236;2022-12-07T11:28:28;14.32;;;8.05;;
44276;SDS011;29973;43.742;1.236;2022-12-07T11:31:32;11.73;;;8.95;;
44276;SDS011;29973;43.742;1.236;2022-12-07T11:36:53;13.73;;;8.60;;
44276;SDS011;29973;43.742;1.236;2022-12-07T11:39:23;10.50;;;7.88;;
44276;SDS011;29973;43.742;1.236;2022-12-07T11:42:19;9.55;;;7.00;;
44276;SDS011;29973;43.742;1.236;2022-12-07T11:50:21;15.38;;;11.68;;
44276;SDS011;29973;43.742;1.236;2022-12-07T11:53:00;16.38;;;10.50;;
44276;SDS011;29973;43.742;1.236;2022-12-07T11:58:44;16.08;;;11.60;;
44276;SDS011;29973;43.742;1.236;2022-12-07T12:03:58;19.17;;;12.15;;
44276;SDS011;29973;43.742;1.236;2022-12-07T12:06:38;13.95;;;12.13;;
44276;SDS011;29973;43.742;1.236;2022-12-07T12:09:17;16.23;;;12.98;;
44276;SDS011;29973;43.742;1.236;2022-12-07T12:22:58;16.63;;;11.00;;
44276;SDS011;29973;43.742;1.236;2022-12-07T12:25:34;19.08;;;11.32;;
44276;SDS011;29973;43.742;1.236;2022-12-07T12:28:41;13.43;;;10.68;;
44276;SDS011;29973;43.742;1.236;2022-12-07T12:31:14;14.88;;;9.93;;
44276;SDS011;29973;43.742;1.236;2022-12-07T12:33:53;12.60;;;10.02;;
44276;SDS011;29973;43.742;1.236;2022-12-07T12:54:34;12.85;;;9.68;;
44276;SDS011;29973;43.742;1.236;2022-12-07T12:57:09;10.90;;;9.10;;
44276;SDS011;29973;43.742;1.236;2022-12-07T13:04:56;13.40;;;9.18;;
44276;SDS011;29973;43.742;1.236;2022-12-07T13:12:57;14.02;;;8.82;;
44276;SDS011;29973;43.742;1.236;2022-12-07T13:15:43;14.25;;;9.88;;
44276;SDS011;29973;43.742;1.236;2022-12-07T13:23:26;13.32;;;9.35;;
44276;SDS011;29973;43.742;1.236;2022-12-07T13:28:39;10.95;;;9.27;;
44276;SDS011;29973;43.742;1.236;2022-12-07T13:33:42;11.10;;;9.38;;
44276;SDS011;29973;43.742;1.236;2022-12-07T13:36:17;11.82;;;9.30;;
44276;SDS011;29973;43.742;1.236;2022-12-07T13:38:56;15.35;;;10.68;;
44276;SDS011;29973;43.742;1.236;2022-12-07T13:41:28;12.57;;;9.50;;
44276;SDS011;29973;43.742;1.236;2022-12-07T13:44:02;16.98;;;10.27;;
44276;SDS011;29973;43.742;1.236;2022-12-07T13:49:23;15.27;;;9.27;;
44276;SDS011;29973;43.742;1.236;2022-12-07T13:51:50;11.88;;;8.25;;
44276;SDS011;29973;43.742;1.236;2022-12-07T13:54:18;10.80;;;8.20;;
44276;SDS011;29973;43.742;1.236;2022-12-07T13:56:47;15.55;;;8.93;;
44276;SDS011;29973;43.742;1.236;2022-12-07T13:59:18;11.13;;;8.75;;
44276;SDS011;29973;43.742;1.236;2022-12-07T14:01:47;12.03;;;8.33;;
44276;SDS011;29973;43.742;1.236;2022-12-07T14:04:34;11.05;;;8.65;;
44276;SDS011;29973;43.742;1.236;2022-12-07T14:07:01;10.98;;;9.07;;
44276;SDS011;29973;43.742;1.236;2022-12-07T14:09:54;12.77;;;8.15;;
44276;SDS011;29973;43.742;1.236;2022-12-07T14:12:23;11.57;;;8.73;;
44276;SDS011;29973;43.742;1.236;2022-12-07T14:14:50;10.15;;;8.30;;
44276;SDS011;29973;43.742;1.236;2022-12-07T14:17:17;11.27;;;8.50;;
44276;SDS011;29973;43.742;1.236;2022-12-07T14:27:36;11.80;;;8.75;;
44276;SDS011;29973;43.742;1.236;2022-12-07T14:30:03;12.00;;;7.32;;
44276;SDS011;29973;43.742;1.236;2022-12-07T14:32:30;10.63;;;7.07;;
44276;SDS011;29973;43.742;1.236;2022-12-07T14:35:12;10.63;;;7.47;;
44276;SDS011;29973;43.742;1.236;2022-12-07T14:37:39;10.45;;;7.10;;
44276;SDS011;29973;43.742;1.236;2022-12-07T14:40:06;11.27;;;7.53;;
44276;SDS011;29973;43.742;1.236;2022-12-07T14:42:32;10.20;;;6.68;;
44276;SDS011;29973;43.742;1.236;2022-12-07T14:44:59;11.00;;;7.63;;
44276;SDS011;29973;43.742;1.236;2022-12-07T14:47:25;10.07;;;7.40;;
44276;SDS011;29973;43.742;1.236;2022-12-07T14:49:51;11.85;;;7.65;;
44276;SDS011;29973;43.742;1.236;2022-12-07T14:52:22;11.63;;;6.90;;
44276;SDS011;29973;43.742;1.236;2022-12-07T14:54:52;10.48;;;7.70;;
44276;SDS011;29973;43.742;1.236;2022-12-07T14:57:17;9.23;;;7.03;;
44276;SDS011;29973;43.742;1.236;2022-12-07T14:59:43;11.00;;;7.28;;
44276;SDS011;29973;43.742;1.236;2022-12-07T15:02:10;9.02;;;7.15;;
44276;SDS011;29973;43.742;1.236;2022-12-07T15:04:38;9.85;;;6.30;;
44276;SDS011;29973;43.742;1.236;2022-12-07T15:07:04;8.68;;;6.40;;
44276;SDS011;29973;43.742;1.236;2022-12-07T15:09:31;8.73;;;6.43;;
44276;SDS011;29973;43.742;1.236;2022-12-07T15:11:57;10.60;;;6.13;;
44276;SDS011;29973;43.742;1.236;2022-12-07T15:14:22;7.90;;;5.80;;
44276;SDS011;29973;43.742;1.236;2022-12-07T15:16:48;7.78;;;6.05;;
44276;SDS011;29973;43.742;1.236;2022-12-07T15:19:15;9.73;;;6.18;;
44276;SDS011;29973;43.742;1.236;2022-12-07T15:21:43;12.00;;;6.03;;
44276;SDS011;29973;43.742;1.236;2022-12-07T15:24:12;10.30;;;6.22;;
44276;SDS011;29973;43.742;1.236;2022-12-07T15:26:38;12.43;;;6.97;;
44276;SDS011;29973;43.742;1.236;2022-12-07T15:29:05;9.23;;;5.40;;
44276;SDS011;29973;43.742;1.236;2022-12-07T15:31:32;12.80;;;6.30;;
44276;SDS011;29973;43.742;1.236;2022-12-07T15:33:58;8.10;;;5.40;;
44276;SDS011;29973;43.742;1.236;2022-12-07T15:36:26;11.18;;;6.60;;
44276;SDS011;29973;43.742;1.236;2022-12-07T15:38:53;10.13;;;6.13;;
44276;SDS011;29973;43.742;1.236;2022-12-07T15:41:19;10.90;;;5.95;;
44276;SDS011;29973;43.742;1.236;2022-12-07T15:43:45;13.73;;;6.57;;
44276;SDS011;29973;43.742;1.236;2022-12-07T15:46:33;10.77;;;6.80;;
44276;SDS011;29973;43.742;1.236;2022-12-07T15:49:01;9.70;;;6.32;;
44276;SDS011;29973;43.742;1.236;2022-12-07T15:51:27;15.60;;;6.97;;
44276;SDS011;29973;43.742;1.236;2022-12-07T15:53:53;13.90;;;7.03;;
44276;SDS011;29973;43.742;1.236;2022-12-07T15:56:20;15.35;;;8.05;;
44276;SDS011;29973;43.742;1.236;2022-12-07T15:58:45;15.88;;;7.93;;
44276;SDS011;29973;43.742;1.236;2022-12-07T16:01:16;12.38;;;8.70;;
44276;SDS011;29973;43.742;1.236;2022-12-07T16:03:43;14.10;;;8.73;;
44276;SDS011;29973;43.742;1.236;2022-12-07T16:06:09;10.40;;;7.57;;
44276;SDS011;29973;43.742;1.236;2022-12-07T16:08:36;13.52;;;8.45;;
44276;SDS011;29973;43.742;1.236;2022-12-07T16:11:05;12.07;;;8.02;;
44276;SDS011;29973;43.742;1.236;2022-12-07T16:13:31;16.92;;;8.45;;
44276;SDS011;29973;43.742;1.236;2022-12-07T16:15:57;13.13;;;8.27;;
44276;SDS011;29973;43.742;1.236;2022-12-07T16:18:23;13.80;;;9.18;;
44276;SDS011;29973;43.742;1.236;2022-12-07T16:20:48;13.02;;;9.30;;
44276;SDS011;29973;43.742;1.236;2022-12-07T16:23:14;13.27;;;8.88;;
44276;SDS011;29973;43.742;1.236;2022-12-07T16:25:40;10.93;;;7.93;;
44276;SDS011;29973;43.742;1.236;2022-12-07T16:28:06;15.70;;;9.00;;
44276;SDS011;29973;43.742;1.236;2022-12-07T16:30:33;12.57;;;9.18;;
44276;SDS011;29973;43.742;1.236;2022-12-07T16:32:58;12.70;;;8.63;;
44276;SDS011;29973;43.742;1.236;2022-12-07T16:35:24;11.30;;;8.52;;
44276;SDS011;29973;43.742;1.236;2022-12-07T16:37:50;10.93;;;8.60;;
44276;SDS011;29973;43.742;1.236;2022-12-07T16:40:15;15.38;;;8.98;;
44276;SDS011;29973;43.742;1.236;2022-12-07T16:42:41;22.35;;;12.32;;
44276;SDS011;29973;43.742;1.236;2022-12-07T16:45:07;42.10;;;19.08;;
44276;SDS011;29973;43.742;1.236;2022-12-07T16:47:33;54.30;;;23.52;;
44276;SDS011;29973;43.742;1.236;2022-12-07T16:50:02;48.72;;;20.00;;
44276;SDS011;29973;43.742;1.236;2022-12-07T16:52:28;49.95;;;19.83;;
44276;SDS011;29973;43.742;1.236;2022-12-07T16:54:54;40.28;;;16.20;;